Página principal
METAR-TAF:

METAR-TAF

Aeroportos :

Aeroporto de Estocolmo-Arlanda

Estocolmo-Arlanda, Suécia

latitude: 59-39N, longitude: 017-57E, altura: 38 m

Observação actual do tempo

O boletim foi feito há 18 minutos, às 09:50 UTC
Vento 13 kt de sudoeste
Temperatura 19°C
Humidade 56%
Pressão 1014 hPa
Visibilidade 10 km ou mais
Nuvens dispersasa uma altura de 4000 ft

METAR: ESSA 180950Z 22013KT 9999 SCT040 19/10 Q1014 NOSIG

Hora: 12:08 (10:08 UTC)

Previsão

O boletim foi feito há 4 horas e 38 minutos, às 05:30 UTC
Previsão válida de 18 às 06 UTC a 19 às 06 UTC
Vento 8 kt de sudoeste
Visibilidade 10 km ou mais
sem nuvens abaixo de 1500 metros e sem cumulonimbus

TAF: ESSA 180530Z 1806/1906 22008KT CAVOK

Observações e previsões do tempo de mais de 4000 aeroportos (mensagens METAR e TAF).

As estações disponíveis são os pontos amarelos e vermelhos sobre o mapa.

Mova o rato sobre o mapa para ver o nome da estação.

Depois clique no ponto para visualizar as observações e previsões meteorológicas.

Para alterar o mapa : clique nos botões verdes com uma cruz preta para aumentar o zoom; no botão verde com uma pitada de zoom; ou nas setas verdes para mapas adjacentes.


METAR-TAF: